TAF and METAR

METAR for Gabès - Matmata International Airport

DTTG 011400Z 07011KT 030V100 9999 FEW033 26/04 Q1011 NOSIG
Report created 1. apr 16:00
wind 11 knots from ENE (070°) Wind direction varies from NNE to E visibility > 10km some clouds (~25% cover) at 3300 feet Temperature 26° with dewpoint at 4° (Humidity 24.25%) Pressure 1011 hPa no significant weather change expected the next couple of hours
No TAF available for Gabès - Matmata International Airport
Gabès - Matmata International Airport in Tunisia at 5m

Latest 5 airports